Time;durP1;ratioP1;P1;durP2;ratioP2;P2;SDS_P1;SDS_P2;PMS_P1;PMS_P2;Temp;Humidity;BMP_temperature;BMP_pressure;BME280_temperature;BME280_humidity;BME280_pressure;Samples;Min_cycle;Max_cycle;Signal;HPM_P1;HPM_P2
2021/08/12 00:00:03;;;;;;;7.75;5.85;;;14.00;99.90;;;;;;4934599;29;20094;-85
2021/08/12 00:02:31;;;;;;;6.95;5.30;;;14.00;99.90;;;;;;4949009;28;20104;-84
2021/08/12 00:04:58;;;;;;;5.55;5.00;;;13.90;99.90;;;;;;4949097;28;20137;-84
2021/08/12 00:07:25;;;;;;;6.22;5.63;;;13.90;99.90;;;;;;4945222;28;20046;-84
2021/08/12 00:09:52;;;;;;;7.00;5.00;;;13.90;99.90;;;;;;4948738;28;20069;-84
2021/08/12 00:12:19;;;;;;;6.38;5.25;;;13.90;99.90;;;;;;4948146;28;20488;-84
2021/08/12 00:14:46;;;;;;;6.50;5.85;;;13.90;99.90;;;;;;4934057;28;20055;-84
2021/08/12 00:17:13;;;;;;;6.28;5.55;;;13.80;99.90;;;;;;4947509;28;20057;-84
2021/08/12 00:19:40;;;;;;;8.45;5.53;;;13.80;99.90;;;;;;4948752;28;20063;-84
2021/08/12 00:22:07;;;;;;;8.18;4.78;;;13.80;99.90;;;;;;4958733;28;20145;-84
2021/08/12 00:24:34;;;;;;;6.07;5.45;;;13.70;99.90;;;;;;4949589;28;20094;-84
2021/08/12 00:27:02;;;;;;;7.45;5.18;;;13.70;99.90;;;;;;4947623;28;20054;-84
2021/08/12 00:29:31;;;;;;;8.10;7.30;;;13.70;99.90;;;;;;4946074;28;20055;-84
2021/08/12 00:31:58;;;;;;;6.90;5.30;;;13.70;99.90;;;;;;4950566;28;20389;-85
2021/08/12 00:34:26;;;;;;;6.45;5.47;;;13.70;99.90;;;;;;4944989;28;20055;-84
2021/08/12 00:36:54;;;;;;;8.18;6.57;;;13.70;99.90;;;;;;4935039;29;20067;-85
2021/08/12 00:39:21;;;;;;;8.27;6.40;;;13.70;99.90;;;;;;4945412;28;20089;-85
2021/08/12 00:41:48;;;;;;;10.77;6.50;;;13.70;99.90;;;;;;4962835;28;20047;-85
2021/08/12 00:44:16;;;;;;;9.13;6.03;;;13.70;99.90;;;;;;4953935;28;20042;-85
2021/08/12 00:46:43;;;;;;;6.10;5.40;;;13.70;99.90;;;;;;4949975;28;20039;-85
2021/08/12 00:49:14;;;;;;;5.72;5.07;;;13.70;99.90;;;;;;4946031;28;20561;-86
2021/08/12 00:51:46;;;;;;;6.72;6.07;;;13.70;99.90;;;;;;4934654;29;20051;-85
2021/08/12 00:54:14;;;;;;;5.88;5.00;;;13.70;99.90;;;;;;4948837;28;20070;-86
2021/08/12 00:56:43;;;;;;;6.65;5.95;;;13.70;99.90;;;;;;4948797;28;20060;-85
2021/08/12 00:59:10;;;;;;;8.23;7.40;;;13.70;99.90;;;;;;4961840;28;20161;-86
2021/08/12 01:01:41;;;;;;;6.90;5.90;;;13.70;99.90;;;;;;4964141;23;20090;-85
2021/08/12 01:04:09;;;;;;;6.55;5.68;;;13.70;99.90;;;;;;4979509;28;20467;-85
2021/08/12 01:06:56;;;;;;;8.27;6.25;;;13.70;99.90;;;;;;4994182;28;20038;-86
2021/08/12 01:09:42;;;;;;;9.23;5.85;;;13.70;99.90;;;;;;4987018;28;20057;-86
2021/08/12 01:12:17;;;;;;;7.22;6.47;;;13.70;99.90;;;;;;4985257;28;20039;-86
2021/08/12 01:15:03;;;;;;;6.93;6.25;;;13.70;99.90;;;;;;4988047;28;20046;-86
2021/08/12 01:17:40;;;;;;;7.43;6.72;;;13.70;99.90;;;;;;4968014;28;20089;-86
2021/08/12 01:20:26;;;;;;;8.80;6.97;;;13.80;99.90;;;;;;4987150;28;20053;-86
2021/08/12 01:22:55;;;;;;;7.45;6.20;;;13.80;99.90;;;;;;4985833;28;20058;-86
2021/08/12 01:25:32;;;;;;;10.38;6.43;;;13.80;99.90;;;;;;4984087;28;20065;-86
2021/08/12 01:28:07;;;;;;;7.40;6.70;;;13.90;99.90;;;;;;4977946;28;20039;-86
2021/08/12 01:30:53;;;;;;;9.18;6.40;;;14.00;99.90;;;;;;4995887;28;20502;-85
2021/08/12 01:33:56;;;;;;;8.40;7.38;;;14.10;99.90;;;;;;4998853;28;20065;-86
2021/08/12 01:36:25;;;;;;;9.05;7.05;;;14.80;99.90;;;;;;4899754;29;20071;-86
2021/08/12 01:38:54;;;;;;;8.38;7.05;;;15.20;99.90;;;;;;4988262;28;20059;-86
2021/08/12 01:41:22;;;;;;;7.72;6.43;;;15.50;99.90;;;;;;4970513;28;20042;-86
2021/08/12 01:43:50;;;;;;;7.85;5.72;;;15.50;99.90;;;;;;4987178;28;20046;-85
2021/08/12 01:46:22;;;;;;;8.02;5.65;;;15.70;99.90;;;;;;4990875;28;20069;-85
2021/08/12 01:48:51;;;;;;;8.27;5.13;;;15.80;99.90;;;;;;4970239;28;20040;-85
2021/08/12 01:51:20;;;;;;;6.63;5.35;;;15.90;99.90;;;;;;4968523;28;20098;-85
2021/08/12 01:53:50;;;;;;;8.27;6.35;;;16.00;99.90;;;;;;4980487;28;20054;-85
2021/08/12 01:56:18;;;;;;;5.63;4.37;;;16.10;99.90;;;;;;4964905;28;20050;-86
2021/08/12 01:58:46;;;;;;;6.63;4.82;;;16.20;99.90;;;;;;4979241;28;20046;-86
2021/08/12 02:01:14;;;;;;;5.13;4.63;;;16.30;99.90;;;;;;4984769;28;20062;-86
2021/08/12 02:03:45;;;;;;;4.60;4.20;;;16.40;99.90;;;;;;4982757;28;20121;-86
2021/08/12 02:06:13;;;;;;;8.35;5.68;;;16.40;99.90;;;;;;4964423;28;20043;-85
2021/08/12 02:08:41;;;;;;;4.82;3.92;;;16.50;99.90;;;;;;4980643;28;20043;-85
2021/08/12 02:11:08;;;;;;;4.85;4.10;;;16.50;99.90;;;;;;4985645;28;20061;-86
2021/08/12 02:13:35;;;;;;;4.90;4.47;;;16.50;99.90;;;;;;4983154;28;20412;-85
2021/08/12 02:16:09;;;;;;;5.85;5.28;;;16.50;99.90;;;;;;4970834;28;20042;-85
2021/08/12 02:18:42;;;;;;;4.97;4.30;;;16.60;99.90;;;;;;4982382;28;20041;-86
2021/08/12 02:21:13;;;;;;;3.67;3.30;;;16.60;99.90;;;;;;4969441;28;20039;-86
2021/08/12 02:23:45;;;;;;;8.38;4.50;;;16.60;99.90;;;;;;4982510;28;20054;-87
2021/08/12 02:26:20;;;;;;;3.63;3.30;;;16.60;99.90;;;;;;4996009;28;20057;-86
2021/08/12 02:28:50;;;;;;;3.88;2.70;;;16.60;99.90;;;;;;4983095;28;20074;-86
2021/08/12 02:31:19;;;;;;;4.38;3.00;;;16.60;99.90;;;;;;4981109;28;20050;-86
2021/08/12 02:33:49;;;;;;;4.57;3.33;;;16.60;99.90;;;;;;4982937;28;20104;-86
2021/08/12 02:36:17;;;;;;;4.40;4.00;;;16.70;99.90;;;;;;4998480;28;20053;-86
2021/08/12 02:38:45;;;;;;;9.55;5.15;;;16.60;99.90;;;;;;4985669;28;20180;-87
2021/08/12 02:41:19;;;;;;;5.63;3.65;;;16.70;99.90;;;;;;4981873;28;20530;-86
2021/08/12 02:43:49;;;;;;;5.10;4.20;;;16.70;99.90;;;;;;4984797;28;20054;-86
2021/08/12 02:46:21;;;;;;;11.05;5.18;;;16.60;99.90;;;;;;4982671;28;20570;-87
2021/08/12 02:48:50;;;;;;;4.05;3.20;;;16.60;99.90;;;;;;4969169;28;20054;-86
2021/08/12 02:51:17;;;;;;;4.93;3.42;;;16.60;99.90;;;;;;4978068;28;20119;-86
2021/08/12 02:53:45;;;;;;;5.38;3.47;;;16.60;99.90;;;;;;4983249;28;20035;-86
2021/08/12 02:56:13;;;;;;;6.70;2.83;;;16.60;99.90;;;;;;4969425;28;20511;-88
2021/08/12 02:58:42;;;;;;;4.07;2.80;;;16.60;99.90;;;;;;4979397;28;20126;-86
2021/08/12 03:01:11;;;;;;;4.63;3.08;;;16.60;99.90;;;;;;4999688;28;20073;-86
2021/08/12 03:03:42;;;;;;;4.28;3.00;;;16.60;99.90;;;;;;4980552;28;20054;-86
2021/08/12 03:06:14;;;;;;;5.35;4.22;;;16.50;99.90;;;;;;4979650;28;20058;-87
2021/08/12 03:08:47;;;;;;;4.65;4.25;;;16.60;99.90;;;;;;4968767;28;20075;-87
2021/08/12 03:11:18;;;;;;;13.60;4.85;;;16.60;99.90;;;;;;4980515;28;20486;-86
2021/08/12 03:13:46;;;;;;;;;;;16.60;99.90;;;;;;4983405;28;20499;-86
2021/08/12 03:16:13;;;;;;;4.40;3.17;;;16.60;99.90;;;;;;5005237;28;20346;-87
2021/08/12 03:18:41;;;;;;;3.33;2.92;;;16.60;99.90;;;;;;5002610;28;20050;-86
2021/08/12 03:21:10;;;;;;;6.55;3.55;;;16.60;99.90;;;;;;4988568;28;20074;-86
2021/08/12 03:23:38;;;;;;;5.47;3.65;;;16.60;99.90;;;;;;4985777;28;20473;-86
2021/08/12 03:26:05;;;;;;;3.17;2.90;;;16.60;99.90;;;;;;4986790;28;20687;-86
2021/08/12 03:28:32;;;;;;;4.65;3.67;;;16.60;99.90;;;;;;4983813;28;20038;-87
2021/08/12 03:31:00;;;;;;;7.70;4.95;;;16.60;99.90;;;;;;4987363;28;20054;-86
2021/08/12 03:33:28;;;;;;;5.57;3.47;;;16.60;99.90;;;;;;4984381;28;20049;-87
2021/08/12 03:35:55;;;;;;;6.82;5.05;;;16.70;99.90;;;;;;4979372;28;20050;-87
2021/08/12 03:38:22;;;;;;;4.65;3.85;;;16.70;99.90;;;;;;4964015;28;20050;-86
2021/08/12 03:40:49;;;;;;;6.47;5.25;;;16.70;99.90;;;;;;4980216;28;20050;-86
2021/08/12 03:43:17;;;;;;;8.77;4.75;;;16.70;99.90;;;;;;4984377;28;20557;-86
2021/08/12 03:45:45;;;;;;;6.85;4.38;;;16.70;99.90;;;;;;4986325;28;20120;-87
2021/08/12 03:48:12;;;;;;;5.63;4.55;;;16.70;99.90;;;;;;4987561;28;21216;-86
2021/08/12 03:50:39;;;;;;;7.45;4.10;;;16.70;99.90;;;;;;4971830;28;20596;-87
2021/08/12 03:53:06;;;;;;;5.15;3.78;;;16.70;99.90;;;;;;4986339;28;20054;-86
2021/08/12 03:55:33;;;;;;;4.45;3.17;;;16.70;99.90;;;;;;4970779;28;20773;-87
2021/08/12 03:58:01;;;;;;;7.22;4.75;;;16.70;99.90;;;;;;4969895;28;20050;-86
2021/08/12 04:00:28;;;;;;;5.00;3.53;;;16.70;99.90;;;;;;4995151;28;20054;-86
2021/08/12 04:02:58;;;;;;;;;;;16.80;99.90;;;;;;5001615;28;20497;-88
2021/08/12 04:05:27;;;;;;;4.45;4.05;;;16.80;99.90;;;;;;4996413;28;19929;-88
2021/08/12 04:07:54;;;;;;;5.18;3.47;;;16.80;99.90;;;;;;4980852;28;20055;-88
2021/08/12 04:10:21;;;;;;;4.80;3.45;;;16.80;99.90;;;;;;4951827;28;20047;-87
2021/08/12 04:12:50;;;;;;;4.47;4.05;;;16.90;99.90;;;;;;4994918;28;20788;-88
2021/08/12 04:15:18;;;;;;;5.97;4.97;;;16.90;99.90;;;;;;4982892;28;20113;-88
2021/08/12 04:17:45;;;;;;;7.07;4.65;;;16.90;99.90;;;;;;4985396;28;20050;-88
2021/08/12 04:20:12;;;;;;;6.97;3.75;;;16.90;99.90;;;;;;4986456;28;20053;-88
2021/08/12 04:22:39;;;;;;;9.48;4.13;;;16.90;99.90;;;;;;4971346;28;20523;-88
2021/08/12 04:25:08;;;;;;;6.47;5.30;;;16.90;99.90;;;;;;4985152;28;20038;-88
2021/08/12 04:27:37;;;;;;;4.40;3.80;;;16.90;99.90;;;;;;4982363;28;20046;-88
2021/08/12 04:30:06;;;;;;;5.88;3.33;;;16.90;99.90;;;;;;5001289;28;20046;-88
2021/08/12 04:32:36;;;;;;;3.38;3.08;;;17.00;99.90;;;;;;4985728;28;20043;-89
2021/08/12 04:35:07;;;;;;;6.28;4.20;;;17.00;99.90;;;;;;4966533;28;20054;-88
2021/08/12 04:37:44;;;;;;;4.10;3.63;;;17.00;99.90;;;;;;4982804;28;20061;-88
2021/08/12 04:40:16;;;;;;;6.00;3.63;;;17.00;99.90;;;;;;4968933;28;20038;-88
2021/08/12 04:42:45;;;;;;;4.85;4.45;;;17.10;99.90;;;;;;4966268;28;20050;-88
2021/08/12 04:45:12;;;;;;;7.20;3.30;;;17.00;99.90;;;;;;4969395;28;20170;-87
2021/08/12 04:47:39;;;;;;;5.18;3.78;;;17.00;99.90;;;;;;4999306;28;20092;-87
2021/08/12 04:50:07;;;;;;;4.10;3.70;;;17.10;99.90;;;;;;4985536;28;20051;-87
2021/08/12 04:52:42;;;;;;;4.78;3.97;;;17.10;99.90;;;;;;4999951;28;20503;-87
2021/08/12 04:55:10;;;;;;;6.97;2.85;;;17.10;99.90;;;;;;4982805;28;20073;-88
2021/08/12 04:57:37;;;;;;;8.98;4.38;;;17.10;99.90;;;;;;4982874;28;20072;-88
2021/08/12 05:00:05;;;;;;;4.03;2.50;;;17.10;99.90;;;;;;4958428;28;20046;-87
2021/08/12 05:02:33;;;;;;;3.15;2.53;;;17.10;99.90;;;;;;4973129;28;20137;-87
2021/08/12 05:05:01;;;;;;;4.93;3.15;;;17.10;99.90;;;;;;4965393;28;20040;-87
2021/08/12 05:07:28;;;;;;;2.83;2.63;;;17.00;99.90;;;;;;4980868;28;20039;-88
2021/08/12 05:09:56;;;;;;;6.90;3.00;;;17.10;99.90;;;;;;4960856;28;20042;-88
2021/08/12 05:12:23;;;;;;;6.38;2.95;;;17.10;99.90;;;;;;4980306;28;20054;-88
2021/08/12 05:14:51;;;;;;;5.32;3.50;;;17.10;99.90;;;;;;4992588;28;20189;-89
2021/08/12 05:17:20;;;;;;;5.88;3.15;;;17.10;99.90;;;;;;4984980;28;20547;-88
2021/08/12 05:19:51;;;;;;;3.35;2.92;;;17.30;99.90;;;;;;4952451;28;20216;-88
2021/08/12 05:22:25;;;;;;;5.97;3.17;;;17.20;99.90;;;;;;4945851;28;20050;-88
2021/08/12 05:24:58;;;;;;;3.70;2.78;;;17.20;99.90;;;;;;4973772;28;20035;-88
2021/08/12 05:27:26;;;;;;;6.80;2.80;;;17.30;99.90;;;;;;4983797;28;20053;-88
2021/08/12 05:29:53;;;;;;;6.93;3.08;;;17.40;99.90;;;;;;4964183;28;20526;-88
2021/08/12 05:32:21;;;;;;;5.07;3.30;;;17.40;99.90;;;;;;4965530;28;20055;-87
2021/08/12 05:34:48;;;;;;;5.07;2.90;;;17.40;99.90;;;;;;4974961;28;20501;-88
2021/08/12 05:37:15;;;;;;;4.88;3.28;;;17.40;99.90;;;;;;4983885;28;20097;-87
2021/08/12 05:39:42;;;;;;;4.28;3.20;;;17.40;99.90;;;;;;4984979;28;20038;-88
2021/08/12 05:42:09;;;;;;;6.97;3.67;;;17.50;99.90;;;;;;4986580;28;20046;-88
2021/08/12 05:44:36;;;;;;;4.75;3.10;;;17.50;99.90;;;;;;4973116;28;20416;-88
2021/08/12 05:47:04;;;;;;;5.85;3.20;;;17.50;99.90;;;;;;4951800;28;20093;-88
2021/08/12 05:49:31;;;;;;;7.18;2.63;;;17.50;99.90;;;;;;5000533;28;20205;-88
2021/08/12 05:51:58;;;;;;;5.18;3.20;;;17.40;99.90;;;;;;4985730;28;20054;-87
2021/08/12 05:54:25;;;;;;;3.05;2.80;;;17.50;99.90;;;;;;4983027;28;20384;-88
2021/08/12 05:56:52;;;;;;;3.45;3.15;;;17.50;99.90;;;;;;4997353;28;20041;-87
2021/08/12 05:59:20;;;;;;;5.47;3.47;;;17.50;99.90;;;;;;4997956;28;20092;-88
2021/08/12 06:01:49;;;;;;;5.00;3.22;;;17.40;99.90;;;;;;4983129;28;20038;-88
2021/08/12 06:04:26;;;;;;;7.13;3.80;;;17.40;99.90;;;;;;4980945;28;20627;-87
2021/08/12 06:06:57;;;;;;;4.95;3.13;;;17.40;99.90;;;;;;4982668;28;20038;-88
2021/08/12 06:09:25;;;;;;;3.45;3.15;;;17.40;99.90;;;;;;4982758;28;20463;-88
2021/08/12 06:11:52;;;;;;;6.40;3.00;;;17.40;99.90;;;;;;4981551;28;20038;-88
2021/08/12 06:14:19;;;;;;;3.47;2.47;;;17.40;99.90;;;;;;4983197;28;20054;-88
2021/08/12 06:16:46;;;;;;;5.07;3.10;;;17.50;99.90;;;;;;4985121;28;20101;-88
2021/08/12 06:19:15;;;;;;;3.08;2.75;;;17.60;99.90;;;;;;4967345;28;20408;-88
2021/08/12 06:21:42;;;;;;;6.57;4.22;;;17.60;99.90;;;;;;4968181;28;20057;-88
2021/08/12 06:24:14;;;;;;;3.38;2.88;;;17.60;99.90;;;;;;4996275;28;20050;-88
2021/08/12 06:26:43;;;;;;;4.57;3.58;;;17.60;99.90;;;;;;4985851;28;20038;-88
2021/08/12 06:29:12;;;;;;;3.75;2.85;;;17.60;99.90;;;;;;4963928;28;20503;-89
2021/08/12 06:31:40;;;;;;;5.07;3.53;;;17.70;99.90;;;;;;4985134;28;20061;-88
2021/08/12 06:34:08;;;;;;;6.88;2.63;;;17.60;99.90;;;;;;4984036;28;20047;-88
2021/08/12 06:36:35;;;;;;;6.30;2.30;;;17.70;99.90;;;;;;4965669;28;20046;-88
2021/08/12 06:39:02;;;;;;;6.10;3.05;;;17.70;99.90;;;;;;4983311;28;20069;-88
2021/08/12 06:41:30;;;;;;;3.47;2.80;;;17.70;99.90;;;;;;4983598;28;20046;-88
2021/08/12 06:44:01;;;;;;;3.75;3.03;;;17.70;99.90;;;;;;4986210;28;20507;-89
2021/08/12 06:46:29;;;;;;;7.32;2.85;;;17.70;99.90;;;;;;4972057;28;20054;-89
2021/08/12 06:48:56;;;;;;;3.42;3.05;;;17.70;99.90;;;;;;4983477;28;20043;-88
2021/08/12 06:51:36;;;;;;;3.97;2.70;;;17.80;99.90;;;;;;4986757;28;20046;-88
2021/08/12 06:54:03;;;;;;;6.00;3.00;;;17.80;99.90;;;;;;4987029;28;20410;-88
2021/08/12 06:56:30;;;;;;;3.05;2.75;;;17.90;99.90;;;;;;4986405;28;20041;-88
2021/08/12 06:58:58;;;;;;;3.53;3.22;;;17.90;99.90;;;;;;4987688;28;20092;-89
2021/08/12 07:01:25;;;;;;;8.50;2.95;;;17.90;99.90;;;;;;4985282;28;20064;-89
2021/08/12 07:03:54;;;;;;;5.57;3.42;;;17.90;99.90;;;;;;4972818;28;20048;-87
2021/08/12 07:06:21;;;;;;;5.43;2.90;;;17.90;99.90;;;;;;4967891;28;20125;-87
2021/08/12 07:08:52;;;;;;;3.90;3.55;;;18.00;99.90;;;;;;4968833;28;20050;-88
2021/08/12 07:11:22;;;;;;;4.03;2.83;;;18.00;99.90;;;;;;4966236;28;20046;-88
2021/08/12 07:13:50;;;;;;;4.65;4.00;;;18.00;99.90;;;;;;4983444;28;20081;-89
2021/08/12 07:16:17;;;;;;;3.55;2.78;;;18.00;99.90;;;;;;4947728;28;20709;-88
2021/08/12 07:18:49;;;;;;;3.88;3.22;;;18.00;99.90;;;;;;4966843;28;20053;-88
2021/08/12 07:21:19;;;;;;;3.47;2.53;;;18.10;99.90;;;;;;4981839;28;20054;-88
2021/08/12 07:23:48;;;;;;;3.75;3.45;;;18.00;99.90;;;;;;5002549;28;20121;-89
2021/08/12 07:26:17;;;;;;;7.15;3.28;;;18.00;99.90;;;;;;4963200;28;20105;-88
2021/08/12 07:28:46;;;;;;;4.75;2.60;;;18.00;99.90;;;;;;4978346;28;20057;-89
2021/08/12 07:31:15;;;;;;;4.03;2.88;;;18.00;99.90;;;;;;4984429;28;20039;-88
2021/08/12 07:33:43;;;;;;;3.35;2.80;;;18.00;99.90;;;;;;4983252;28;20149;-88
2021/08/12 07:36:12;;;;;;;7.05;3.53;;;18.10;99.90;;;;;;4973535;28;20136;-88
2021/08/12 07:38:39;;;;;;;5.20;2.20;;;18.10;99.90;;;;;;4989575;28;20511;-87
2021/08/12 07:41:06;;;;;;;4.78;3.60;;;18.10;99.90;;;;;;4971027;28;20141;-87
2021/08/12 07:43:33;;;;;;;2.85;2.20;;;18.10;99.90;;;;;;4974402;28;20512;-88
2021/08/12 07:46:00;;;;;;;6.25;2.60;;;18.10;99.90;;;;;;4983675;28;20049;-88
2021/08/12 07:48:27;;;;;;;4.72;2.67;;;18.20;99.90;;;;;;4989018;28;20050;-87
2021/08/12 07:50:54;;;;;;;4.10;3.17;;;18.20;99.90;;;;;;4989112;28;20139;-88
2021/08/12 07:53:21;;;;;;;8.13;3.35;;;18.20;99.90;;;;;;4984171;28;20056;-88
2021/08/12 07:55:49;;;;;;;2.65;2.42;;;18.20;99.90;;;;;;4982275;28;20066;-89
2021/08/12 07:58:16;;;;;;;4.32;2.67;;;18.20;99.90;;;;;;4978292;28;20487;-88
2021/08/12 08:00:43;;;;;;;5.97;3.28;;;18.30;99.90;;;;;;4970325;28;20492;-89
2021/08/12 08:03:10;;;;;;;2.33;2.10;;;18.40;99.90;;;;;;4973891;28;20051;-88
2021/08/12 08:05:37;;;;;;;4.97;3.53;;;18.30;99.90;;;;;;4959509;28;20279;-89
2021/08/12 08:08:04;;;;;;;5.43;3.05;;;18.20;99.90;;;;;;4961947;28;20074;-88
2021/08/12 08:10:31;;;;;;;5.57;2.83;;;18.30;99.90;;;;;;4961046;28;21558;-88
2021/08/12 08:12:59;;;;;;;7.47;2.60;;;18.40;99.90;;;;;;4985545;28;20043;-89
2021/08/12 08:15:27;;;;;;;3.92;3.15;;;18.50;99.90;;;;;;4986283;28;20047;-89
2021/08/12 08:18:02;;;;;;;2.92;2.70;;;18.40;99.90;;;;;;4987369;28;20388;-90
2021/08/12 08:20:30;;;;;;;3.58;2.70;;;18.50;99.90;;;;;;4970598;28;20448;-88
2021/08/12 08:23:03;;;;;;;3.72;2.88;;;18.60;99.90;;;;;;4982615;28;20038;-88
2021/08/12 08:25:32;;;;;;;4.53;3.50;;;18.50;99.90;;;;;;4986803;28;20054;-88
2021/08/12 08:28:01;;;;;;;3.25;2.63;;;18.50;99.90;;;;;;4978294;28;20049;-87
2021/08/12 08:30:30;;;;;;;6.63;3.60;;;18.60;99.90;;;;;;4962079;28;20081;-88
2021/08/12 08:32:57;;;;;;;4.82;2.30;;;18.60;99.90;;;;;;5002442;28;20038;-88
2021/08/12 08:35:25;;;;;;;3.53;2.85;;;18.60;99.90;;;;;;4970639;28;20467;-87
2021/08/12 08:37:53;;;;;;;4.82;2.22;;;18.60;99.90;;;;;;4971868;28;20483;-87
2021/08/12 08:40:21;;;;;;;4.53;2.50;;;18.70;99.90;;;;;;4972733;28;20039;-88
2021/08/12 08:42:49;;;;;;;5.57;3.58;;;18.80;99.90;;;;;;4988111;28;20043;-88
2021/08/12 08:45:27;;;;;;;7.55;3.10;;;18.70;99.90;;;;;;4981290;28;20061;-88
2021/08/12 08:47:56;;;;;;;8.02;5.15;;;18.80;99.90;;;;;;4985793;28;20053;-88
2021/08/12 08:50:26;;;;;;;6.43;3.22;;;18.80;99.90;;;;;;4988640;28;20046;-87
2021/08/12 08:52:54;;;;;;;3.40;2.20;;;18.70;99.90;;;;;;4974393;28;20038;-89
2021/08/12 08:55:23;;;;;;;7.38;3.72;;;18.70;99.90;;;;;;4966788;28;20055;-87
2021/08/12 08:57:58;;;;;;;9.07;3.25;;;18.60;99.90;;;;;;4988199;28;20050;-90
2021/08/12 09:00:26;;;;;;;4.45;2.90;;;18.70;99.90;;;;;;4984753;28;20057;-87
2021/08/12 09:02:54;;;;;;;2.92;2.63;;;18.70;99.90;;;;;;4973603;28;20503;-88
2021/08/12 09:05:22;;;;;;;5.25;3.40;;;18.80;99.90;;;;;;4967253;28;20059;-88
2021/08/12 09:07:50;;;;;;;4.50;3.50;;;18.80;99.90;;;;;;4983188;28;20054;-88
2021/08/12 09:10:24;;;;;;;3.70;2.72;;;18.90;99.90;;;;;;4979893;28;20050;-88
2021/08/12 09:13:05;;;;;;;5.53;2.85;;;19.10;99.90;;;;;;4978643;28;20411;-88
2021/08/12 09:15:43;;;;;;;3.10;2.80;;;19.10;99.90;;;;;;4983144;28;22587;-89
2021/08/12 09:21:37;;;;;;;3.33;2.97;;;18.90;99.90;;;;;;4967128;28;20038;-87
2021/08/12 09:24:48;;;;;;;7.03;2.92;;;18.90;99.90;;;;;;4986042;28;20065;-89
2021/08/12 09:28:01;;;;;;;3.65;2.10;;;18.90;99.90;;;;;;4964969;28;20046;-88
2021/08/12 09:30:28;;;;;;;10.23;3.38;;;19.10;99.90;;;;;;4964434;28;20517;-89
2021/08/12 09:32:55;;;;;;;4.72;3.55;;;19.10;99.90;;;;;;4985278;28;20035;-87
2021/08/12 09:35:27;;;;;;;5.15;2.80;;;19.00;99.90;;;;;;4890266;28;20058;-88
2021/08/12 09:38:10;;;;;;;8.60;4.05;;;19.10;99.90;;;;;;341073;28;10023262;-87
2021/08/12 09:40:40;;;;;;;4.47;4.03;;;19.20;99.90;;;;;;4949370;28;20050;-89
2021/08/12 09:43:10;;;;;;;3.22;2.80;;;19.20;99.90;;;;;;4968449;28;20069;-89
2021/08/12 09:45:39;;;;;;;11.85;2.80;;;19.00;99.90;;;;;;4985480;28;20050;-88
2021/08/12 09:48:16;;;;;;;4.68;2.50;;;18.90;99.90;;;;;;4986781;28;20092;-89
2021/08/12 09:50:45;;;;;;;3.28;2.20;;;19.00;99.90;;;;;;4968344;28;20133;-88
2021/08/12 09:53:20;;;;;;;3.78;2.40;;;19.00;99.90;;;;;;4965446;28;20101;-87
2021/08/12 09:55:47;;;;;;;3.58;2.65;;;19.20;99.90;;;;;;4986404;28;20053;-88
2021/08/12 09:58:15;;;;;;;6.60;3.50;;;19.20;99.90;;;;;;4987937;28;20046;-88
2021/08/12 10:00:47;;;;;;;10.73;3.58;;;19.20;99.90;;;;;;4955383;28;20050;-89
2021/08/12 10:03:24;;;;;;;4.20;2.90;;;19.20;99.90;;;;;;4982757;28;20051;-88
2021/08/12 10:05:53;;;;;;;5.93;3.75;;;19.10;99.90;;;;;;4988728;28;20050;-88
2021/08/12 10:08:34;;;;;;;4.82;2.35;;;19.10;99.90;;;;;;4985089;28;20065;-87
2021/08/12 10:11:26;;;;;;;5.80;3.13;;;19.20;99.90;;;;;;4995907;28;20126;-88
2021/08/12 10:14:04;;;;;;;2.67;2.10;;;19.30;99.90;;;;;;4981192;28;20057;-88
2021/08/12 10:16:38;;;;;;;2.67;1.92;;;19.20;99.90;;;;;;4969053;28;20062;-89
2021/08/12 10:19:09;;;;;;;4.10;2.90;;;19.20;99.90;;;;;;4986643;28;20082;-89
2021/08/12 10:21:40;;;;;;;3.38;2.97;;;19.20;99.90;;;;;;4983945;28;20667;-87
2021/08/12 10:24:08;;;;;;;8.02;2.63;;;19.30;99.90;;;;;;4985798;28;20039;-88
2021/08/12 10:26:36;;;;;;;2.83;2.63;;;19.40;99.90;;;;;;4988588;28;20114;-88
2021/08/12 10:29:15;;;;;;;5.65;3.13;;;19.50;99.90;;;;;;4970433;28;20046;-89
2021/08/12 10:31:46;;;;;;;3.55;2.17;;;19.50;99.90;;;;;;4981658;28;20042;-88
2021/08/12 10:34:14;;;;;;;5.93;2.65;;;19.20;99.90;;;;;;4978455;28;20043;-88
2021/08/12 10:36:44;;;;;;;2.30;2.10;;;19.40;99.90;;;;;;4962506;28;20058;-88
2021/08/12 10:39:16;;;;;;;3.92;3.33;;;19.50;99.90;;;;;;4983704;28;20039;-88
2021/08/12 10:41:44;;;;;;;5.15;2.47;;;19.50;99.90;;;;;;4983162;28;20790;-88
2021/08/12 10:44:14;;;;;;;4.60;3.17;;;19.50;99.90;;;;;;5001192;28;20153;-87
2021/08/12 10:46:41;;;;;;;;;;;19.50;99.90;;;;;;4989884;28;20042;-88
2021/08/12 10:49:30;;;;;;;3.72;2.72;;;19.40;99.90;;;;;;4989423;28;19922;-88
2021/08/12 10:52:09;;;;;;;3.80;2.58;;;19.40;99.90;;;;;;4987623;28;20062;-88
2021/08/12 10:54:42;;;;;;;3.50;2.17;;;19.40;99.90;;;;;;4990700;28;20057;-87
2021/08/12 10:57:22;;;;;;;4.85;2.65;;;19.50;99.90;;;;;;4990220;28;20046;-88
2021/08/12 10:59:51;;;;;;;2.33;2.00;;;19.40;99.90;;;;;;4962250;28;20047;-88
2021/08/12 11:02:27;;;;;;;3.70;3.25;;;19.50;99.90;;;;;;4973437;28;20395;-88
2021/08/12 11:04:56;;;;;;;2.67;2.13;;;19.70;99.90;;;;;;4971151;28;20061;-87
2021/08/12 11:07:38;;;;;;;6.15;3.47;;;19.80;99.90;;;;;;4988295;28;20085;-88
2021/08/12 11:10:08;;;;;;;4.13;2.28;;;20.00;99.90;;;;;;4985187;28;20053;-87
2021/08/12 11:12:53;;;;;;;2.40;2.20;;;20.00;99.90;;;;;;4978603;28;20054;-88
2021/08/12 11:15:42;;;;;;;4.05;2.00;;;20.00;99.90;;;;;;4984483;28;20043;-89
2021/08/12 11:18:18;;;;;;;4.05;2.65;;;20.00;99.90;;;;;;4970982;28;20074;-88
2021/08/12 11:20:46;;;;;;;2.88;2.28;;;19.90;99.90;;;;;;4990208;28;20049;-88
2021/08/12 11:23:19;;;;;;;6.18;2.80;;;20.10;99.90;;;;;;4981744;28;20672;-88
2021/08/12 11:26:03;;;;;;;4.55;2.50;;;19.90;99.90;;;;;;4989812;28;20066;-89
2021/08/12 11:28:39;;;;;;;3.33;2.50;;;19.60;99.90;;;;;;4971176;28;20053;-89
2021/08/12 11:31:07;;;;;;;5.28;2.63;;;19.50;99.90;;;;;;4985435;28;20046;-89
2021/08/12 11:33:54;;;;;;;2.58;1.85;;;19.60;99.90;;;;;;4948319;28;20121;-87
2021/08/12 11:36:23;;;;;;;3.70;2.00;;;19.80;99.90;;;;;;4981659;28;20111;-88
2021/08/12 11:39:11;;;;;;;;;;;19.70;99.90;;;;;;4980758;28;20046;-87
2021/08/12 11:41:43;;;;;;;9.32;2.45;;;19.60;99.90;;;;;;4987485;28;20294;-88
2021/08/12 11:44:15;;;;;;;5.15;2.75;;;19.40;99.90;;;;;;4988455;28;20046;-88
2021/08/12 11:46:43;;;;;;;3.63;2.40;;;19.50;99.90;;;;;;5001797;28;20054;-88
2021/08/12 11:49:16;;;;;;;2.58;2.38;;;19.50;99.90;;;;;;4985248;28;20050;-89
2021/08/12 11:51:44;;;;;;;4.82;2.15;;;19.70;99.90;;;;;;4982528;28;20043;-89
2021/08/12 11:54:22;;;;;;;8.30;3.03;;;19.50;99.90;;;;;;4977584;28;20043;-88
2021/08/12 11:56:51;;;;;;;3.47;2.72;;;19.40;99.90;;;;;;4986980;28;20077;-88
2021/08/12 11:59:26;;;;;;;3.63;3.13;;;19.60;99.90;;;;;;4971275;28;20062;-88
2021/08/12 12:02:07;;;;;;;3.45;2.95;;;19.50;99.90;;;;;;4968115;28;20598;-88
2021/08/12 12:04:34;;;;;;;3.30;2.60;;;19.60;99.90;;;;;;4981718;28;20129;-88
2021/08/12 12:07:01;;;;;;;5.43;4.10;;;19.40;99.90;;;;;;4967820;28;20121;-88
2021/08/12 12:09:31;;;;;;;3.47;2.72;;;19.40;99.90;;;;;;4982110;28;20098;-88
2021/08/12 12:12:02;;;;;;;;;;;19.50;99.90;;;;;;4989341;28;20414;-87
2021/08/12 12:14:34;;;;;;;4.70;2.35;;;19.60;99.90;;;;;;5001319;28;20562;-87
2021/08/12 12:17:19;;;;;;;2.67;2.50;;;19.80;99.90;;;;;;4986142;28;20073;-87
2021/08/12 12:20:10;;;;;;;3.38;1.67;;;19.80;99.90;;;;;;4970234;28;20052;-87
2021/08/12 12:22:42;;;;;;;2.92;2.53;;;19.80;99.90;;;;;;4966632;28;20050;-88
2021/08/12 12:25:11;;;;;;;3.47;2.30;;;19.90;99.90;;;;;;4967618;28;20050;-87
2021/08/12 12:27:39;;;;;;;3.38;2.13;;;19.80;99.90;;;;;;4969786;28;20403;-87
2021/08/12 12:30:14;;;;;;;3.97;2.58;;;19.60;99.90;;;;;;4985895;28;20046;-88
2021/08/12 12:32:44;;;;;;;4.82;2.50;;;19.50;99.90;;;;;;5000399;28;20586;-87
2021/08/12 12:35:12;;;;;;;6.13;2.90;;;19.50;99.90;;;;;;4988093;28;20061;-87
2021/08/12 12:37:41;;;;;;;3.25;1.92;;;19.50;99.90;;;;;;4986288;28;20042;-88
2021/08/12 12:40:17;;;;;;;3.50;2.28;;;19.60;99.90;;;;;;4970570;28;20069;-89
2021/08/12 12:42:44;;;;;;;4.32;2.40;;;19.50;99.90;;;;;;4987838;28;20043;-88
2021/08/12 12:45:13;;;;;;;5.95;2.47;;;19.40;99.90;;;;;;4988604;28;20046;-87
2021/08/12 12:47:40;;;;;;;3.03;2.20;;;19.50;99.90;;;;;;4983691;28;20043;-87
2021/08/12 12:50:09;;;;;;;3.20;2.05;;;19.50;99.90;;;;;;4988599;28;20499;-89
2021/08/12 12:53:00;;;;;;;4.10;2.20;;;19.70;99.90;;;;;;4986084;28;20042;-90
2021/08/12 12:55:35;;;;;;;2.22;2.03;;;19.90;99.90;;;;;;4950019;28;20120;-88
2021/08/12 12:58:20;;;;;;;5.07;1.83;;;20.20;99.90;;;;;;4987345;28;20041;-86
2021/08/12 13:01:08;;;;;;;2.85;1.42;;;20.20;99.90;;;;;;4988849;28;20034;-88
2021/08/12 13:03:45;;;;;;;2.28;1.92;;;20.30;99.90;;;;;;4947934;28;20041;-86
2021/08/12 13:06:14;;;;;;;2.80;2.25;;;20.30;99.90;;;;;;4987045;28;20038;-88
2021/08/12 13:08:48;;;;;;;6.97;2.15;;;20.30;99.90;;;;;;4987835;28;20046;-86